Ten Sleep, WY

12:05 PM MST on December 20, 2014 (GMT -0700)
Road 70 | Change Station
CLOSE
Current Station
Personal Weather Station
Location: Ten Sleep, WY
Elevation: 4423 ft
Nearby Weather Stations

Elev 4423 ft 44.03 °N, 107.45 °W | Updated 9 seconds ago

Partly Cloudy
Partly Cloudy
23.9 °F
Feels Like 24 °F
N
0.0
Wind Variable Wind from SSE
Gusts 0.0 mph

Today
High -- | Low -- °F
--% Chance of Precip.
Yesterday
High -- | Low -- °F
Precip. -- in
7:40 AM 4:34 PM
Waning Crescent, 2% visible
Pressure 30.12 in
Visibility 10.0 miles
Clouds Clear
Windchill 24 °F
Dew Point 15 °F
Humidity 68%
Rainfall 0.00 in
Snow Depth Not available.
UV 2 out of 12
Pollen .10 out of 12
Air Quality Not available.
Flu Activity Not available.
METAR KWRL 201853Z AUTO 23009KT 10SM CLR M07/M09 A2994 RMK AO2 SLP197 T10671094

More Conditions Fewer Conditions

Pressure 30.12 in
Visibility 10.0 miles
Clouds Clear
Windchill 24 °F
Dew Point 15 °F
Humidity 68%
Rainfall 0.00 in
Snow Depth Not available.
UV 2 out of 12
Pollen .10 out of 12
Air Quality Not available.
Flu Activity Not available.
METAR KWRL 201853Z AUTO 23009KT 10SM CLR M07/M09 A2994 RMK AO2 SLP197 T10671094

More Conditions Fewer Conditions

10-Day Weather Forecast

Almanac

Astronomy

Dec. 20, 2014 Rise Set
Actual Time
Civil Twilight
Nautical Twilight
Astronomical Twilight
Moon
Length of Visible Light
Length of Day
Tomorrow will be .
, % of the Moon is Illuminated

Today's Extremes

State Highs State Lows

Community

WunderPhotos

Upload Photos

1,779,247 photos uploaded!

WunderBlogs® & News

Nearby

Air Quality

  Air Quality AQ Index Pollutant
Not available.

Snow Depth

Station Depth Elevation

Earthquake Activity

City Distance Mag. Time & Date
Minimum magnitude displayed is 2.5.

Coastal Water Temperatures

Place Temperature

Nearby Weather Stations